Clinton, New York
Current Conditions -  °F | °C
As of 5:53 PM on Friday 31 Oct 2014 (Local Time) from KRME Reporting Station
Overcast Overcast  
Wind Chill: 48°   Ceiling: 10000
Heat Index: 48°   Visibility: 10mi
Dew Point: 33°   Wind: 0mph
Humidity: 56%   Direction: NA
Pressure: 29.95"   Gusts: NA
Location:  43.05°N, 75.38°W
Report Text: KRME 312153Z 00000KT 10SM OVC100 09/01 A2995 RMK AO2 SLP146 T00890006
Loading
Personal Weather Stations






























Interactive Weather Map
Tropical Storm Tracking
New forecast layout! Learn more

10-Day Weather Forecast

Advertisements
Track Severe Weather on mobile